aviador You're here:

KTYS Decoded Metar

KNOXVILLE in TN, USA
Report Time2017-05-26 12:53:00
UTC Time2017-05-26 13:09:37
Flight Rules vfr VFR
Wind250° at 05 kt
W.Decomp.*RWY 23: 4.6 kt HW 2.0 kt RCW
W.Rank250° ranks 7
Current wind is below 250° avg. (7.4)
Visibility9999 m
Phenomena:N/A
Clouds:Few 050 Hf
Few 250 Hf
Expected CloudBase > 2,000 ft AGL from Temp-Dew spread
CeilingNone
Temp17°C (ISA +4)
Dew Point12°C (73% RH)
AAT15.9°C
QNH1016 hPa
Density Alt1,549 ft
Elevation991 ft
Report Wrong Elevation
Raw Report
KTYS 261253Z 25005KT 10SM FEW050 FEW250 17/12 A3001 RMK AO2 SLP157
T01720117=

Extra information for KTYS:More info

Metar Taf Metar & Taf Last 4 Metars F.Rules Stats Wind Profile Meteogram Temp Stats Airport Information Weather charts Add Link Nearby VenuesMetar ALERT Operation Metar Decoded Social comments

AIRNAV info for KTYS